sensor_id;sensor_type;location;lat;lon;timestamp;pressure;altitude;pressure_sealevel;temperature;humidity
4022;BME280;2025;48.260;16.432;2023-08-12T00:02:13;100431.78;;;14.10;90.76
4022;BME280;2025;48.260;16.432;2023-08-12T00:04:40;100426.16;;;14.05;90.70
4022;BME280;2025;48.260;16.432;2023-08-12T00:07:07;100430.34;;;14.00;91.00
4022;BME280;2025;48.260;16.432;2023-08-12T00:09:34;100423.41;;;13.99;91.66
4022;BME280;2025;48.260;16.432;2023-08-12T00:12:01;100416.59;;;13.96;91.65
4022;BME280;2025;48.260;16.432;2023-08-12T00:14:29;100423.72;;;13.96;91.54
4022;BME280;2025;48.260;16.432;2023-08-12T00:16:56;100423.09;;;13.94;91.50
4022;BME280;2025;48.260;16.432;2023-08-12T00:19:23;100426.91;;;13.91;91.83
4022;BME280;2025;48.260;16.432;2023-08-12T00:21:50;100424.44;;;13.89;91.98
4022;BME280;2025;48.260;16.432;2023-08-12T00:24:18;100430.91;;;13.87;92.01
4022;BME280;2025;48.260;16.432;2023-08-12T00:26:45;100435.72;;;13.83;91.98
4022;BME280;2025;48.260;16.432;2023-08-12T00:29:12;100434.25;;;13.81;92.05
4022;BME280;2025;48.260;16.432;2023-08-12T00:31:40;100430.47;;;13.75;92.18
4022;BME280;2025;48.260;16.432;2023-08-12T00:34:07;100428.00;;;13.74;92.33
4022;BME280;2025;48.260;16.432;2023-08-12T00:36:34;100430.97;;;13.70;92.43
4022;BME280;2025;48.260;16.432;2023-08-12T00:39:02;100430.50;;;13.67;92.43
4022;BME280;2025;48.260;16.432;2023-08-12T00:41:29;100436.16;;;13.64;92.50
4022;BME280;2025;48.260;16.432;2023-08-12T00:43:56;100439.97;;;13.61;92.65
4022;BME280;2025;48.260;16.432;2023-08-12T00:46:23;100433.69;;;13.62;92.77
4022;BME280;2025;48.260;16.432;2023-08-12T00:48:52;100426.75;;;13.61;92.84
4022;BME280;2025;48.260;16.432;2023-08-12T00:51:19;100438.31;;;13.60;92.96
4022;BME280;2025;48.260;16.432;2023-08-12T00:53:46;100432.56;;;13.57;92.95
4022;BME280;2025;48.260;16.432;2023-08-12T00:56:14;100430.44;;;13.52;93.01
4022;BME280;2025;48.260;16.432;2023-08-12T00:58:43;100437.53;;;13.52;93.22
4022;BME280;2025;48.260;16.432;2023-08-12T01:01:10;100435.22;;;13.48;93.28
4022;BME280;2025;48.260;16.432;2023-08-12T01:03:37;100434.75;;;13.45;93.30
4022;BME280;2025;48.260;16.432;2023-08-12T01:06:06;100429.78;;;13.42;93.34
4022;BME280;2025;48.260;16.432;2023-08-12T01:08:34;100427.50;;;13.39;93.67
4022;BME280;2025;48.260;16.432;2023-08-12T01:11:04;100434.63;;;13.38;93.65
4022;BME280;2025;48.260;16.432;2023-08-12T01:13:39;100430.50;;;13.36;93.53
4022;BME280;2025;48.260;16.432;2023-08-12T01:16:10;100431.81;;;13.32;93.51
4022;BME280;2025;48.260;16.432;2023-08-12T01:18:41;100434.78;;;13.28;93.65
4022;BME280;2025;48.260;16.432;2023-08-12T01:21:11;100439.56;;;13.25;93.54
4022;BME280;2025;48.260;16.432;2023-08-12T01:23:43;100444.22;;;13.23;93.85
4022;BME280;2025;48.260;16.432;2023-08-12T01:26:11;100441.72;;;13.21;93.96
4022;BME280;2025;48.260;16.432;2023-08-12T01:28:38;100442.06;;;13.18;94.24
4022;BME280;2025;48.260;16.432;2023-08-12T01:31:10;100440.25;;;13.19;94.20
4022;BME280;2025;48.260;16.432;2023-08-12T01:33:42;100429.66;;;13.19;94.36
4022;BME280;2025;48.260;16.432;2023-08-12T01:36:15;100442.22;;;13.17;94.14
4022;BME280;2025;48.260;16.432;2023-08-12T01:38:44;100447.03;;;13.13;94.71
4022;BME280;2025;48.260;16.432;2023-08-12T01:41:13;100438.63;;;13.10;95.00
4022;BME280;2025;48.260;16.432;2023-08-12T01:43:41;100442.09;;;13.10;94.77
4022;BME280;2025;48.260;16.432;2023-08-12T01:46:09;100439.63;;;13.08;94.75
4022;BME280;2025;48.260;16.432;2023-08-12T01:48:36;100443.59;;;13.04;94.80
4022;BME280;2025;48.260;16.432;2023-08-12T01:51:03;100446.22;;;13.04;94.80
4022;BME280;2025;48.260;16.432;2023-08-12T01:53:30;100439.31;;;13.03;94.98
4022;BME280;2025;48.260;16.432;2023-08-12T01:55:59;100431.03;;;13.06;94.94
4022;BME280;2025;48.260;16.432;2023-08-12T01:58:25;100443.59;;;13.04;94.89
4022;BME280;2025;48.260;16.432;2023-08-12T02:00:53;100444.91;;;13.00;94.92
4022;BME280;2025;48.260;16.432;2023-08-12T02:03:19;100445.25;;;12.97;95.21
4022;BME280;2025;48.260;16.432;2023-08-12T02:05:46;100443.94;;;12.93;95.17
4022;BME280;2025;48.260;16.432;2023-08-12T02:08:13;100444.94;;;12.92;94.87
4022;BME280;2025;48.260;16.432;2023-08-12T02:10:40;100448.75;;;12.90;94.94
4022;BME280;2025;48.260;16.432;2023-08-12T02:13:09;100446.25;;;12.88;95.19
4022;BME280;2025;48.260;16.432;2023-08-12T02:15:36;100450.88;;;12.86;95.41
4022;BME280;2025;48.260;16.432;2023-08-12T02:18:03;100448.44;;;12.84;95.70
4022;BME280;2025;48.260;16.432;2023-08-12T02:20:30;100459.00;;;12.84;95.71
4022;BME280;2025;48.260;16.432;2023-08-12T02:22:57;100443.28;;;12.83;95.87
4022;BME280;2025;48.260;16.432;2023-08-12T02:25:24;100443.44;;;12.81;95.96
4022;BME280;2025;48.260;16.432;2023-08-12T02:27:51;100438.50;;;12.78;95.75
4022;BME280;2025;48.260;16.432;2023-08-12T02:30:19;100447.59;;;12.76;95.35
4022;BME280;2025;48.260;16.432;2023-08-12T02:32:46;100439.16;;;12.72;95.48
4022;BME280;2025;48.260;16.432;2023-08-12T02:35:15;100445.47;;;12.71;95.79
4022;BME280;2025;48.260;16.432;2023-08-12T02:37:42;100449.72;;;12.72;95.63
4022;BME280;2025;48.260;16.432;2023-08-12T02:40:09;100442.81;;;12.71;95.66
4022;BME280;2025;48.260;16.432;2023-08-12T02:42:37;100443.97;;;12.69;95.75
4022;BME280;2025;48.260;16.432;2023-08-12T02:45:05;100436.19;;;12.67;95.89
4022;BME280;2025;48.260;16.432;2023-08-12T02:47:33;100442.50;;;12.66;95.98
4022;BME280;2025;48.260;16.432;2023-08-12T02:50:00;100441.00;;;12.63;95.98
4022;BME280;2025;48.260;16.432;2023-08-12T02:52:27;100448.44;;;12.60;95.99
4022;BME280;2025;48.260;16.432;2023-08-12T02:54:54;100442.63;;;12.56;96.00
4022;BME280;2025;48.260;16.432;2023-08-12T02:57:21;100446.63;;;12.52;96.35
4022;BME280;2025;48.260;16.432;2023-08-12T02:59:48;100443.97;;;12.52;96.16
4022;BME280;2025;48.260;16.432;2023-08-12T03:02:15;100450.41;;;12.50;96.27
4022;BME280;2025;48.260;16.432;2023-08-12T03:04:44;100453.22;;;12.48;96.29
4022;BME280;2025;48.260;16.432;2023-08-12T03:07:11;100446.44;;;12.46;96.26
4022;BME280;2025;48.260;16.432;2023-08-12T03:09:38;100449.91;;;12.46;96.49
4022;BME280;2025;48.260;16.432;2023-08-12T03:12:05;100462.28;;;12.46;96.58
4022;BME280;2025;48.260;16.432;2023-08-12T03:14:32;100456.50;;;12.42;96.68
4022;BME280;2025;48.260;16.432;2023-08-12T03:16:59;100459.16;;;12.42;96.50
4022;BME280;2025;48.260;16.432;2023-08-12T03:19:26;100462.13;;;12.39;96.50
4022;BME280;2025;48.260;16.432;2023-08-12T03:21:55;100460.78;;;12.35;96.49
4022;BME280;2025;48.260;16.432;2023-08-12T03:24:22;100451.22;;;12.34;96.51
4022;BME280;2025;48.260;16.432;2023-08-12T03:26:49;100459.31;;;12.32;96.68
4022;BME280;2025;48.260;16.432;2023-08-12T03:29:15;100464.59;;;12.32;96.87
4022;BME280;2025;48.260;16.432;2023-08-12T03:31:42;100464.59;;;12.32;96.84
4022;BME280;2025;48.260;16.432;2023-08-12T03:34:09;100457.97;;;12.28;96.79
4022;BME280;2025;48.260;16.432;2023-08-12T03:36:36;100454.50;;;12.28;97.36
4022;BME280;2025;48.260;16.432;2023-08-12T03:39:05;100458.81;;;12.29;97.30
4022;BME280;2025;48.260;16.432;2023-08-12T03:41:32;100458.63;;;12.30;97.00
4022;BME280;2025;48.260;16.432;2023-08-12T03:43:59;100465.25;;;12.26;97.07
4022;BME280;2025;48.260;16.432;2023-08-12T03:46:25;100464.25;;;12.27;97.11
4022;BME280;2025;48.260;16.432;2023-08-12T03:48:52;100460.63;;;12.28;97.19
4022;BME280;2025;48.260;16.432;2023-08-12T03:51:19;100458.81;;;12.29;97.28
4022;BME280;2025;48.260;16.432;2023-08-12T03:53:46;100463.59;;;12.25;96.78
4022;BME280;2025;48.260;16.432;2023-08-12T03:56:15;100462.78;;;12.25;97.41
4022;BME280;2025;48.260;16.432;2023-08-12T03:58:42;100455.50;;;12.27;97.81
4022;BME280;2025;48.260;16.432;2023-08-12T04:01:09;100468.38;;;12.30;97.72
4022;BME280;2025;48.260;16.432;2023-08-12T04:03:36;100452.53;;;12.30;97.78
4022;BME280;2025;48.260;16.432;2023-08-12T04:06:03;100454.22;;;12.31;97.66
4022;BME280;2025;48.260;16.432;2023-08-12T04:08:29;100448.75;;;12.32;98.01
4022;BME280;2025;48.260;16.432;2023-08-12T04:10:57;100448.59;;;12.34;97.73
4022;BME280;2025;48.260;16.432;2023-08-12T04:13:26;100455.50;;;12.27;97.79
4022;BME280;2025;48.260;16.432;2023-08-12T04:15:53;100445.63;;;12.29;97.82
4022;BME280;2025;48.260;16.432;2023-08-12T04:18:20;100446.75;;;12.34;98.06
4022;BME280;2025;48.260;16.432;2023-08-12T04:20:48;100445.59;;;12.37;98.18
4022;BME280;2025;48.260;16.432;2023-08-12T04:23:16;100447.09;;;12.39;98.30
4022;BME280;2025;48.260;16.432;2023-08-12T04:25:43;100452.22;;;12.41;98.45
4022;BME280;2025;48.260;16.432;2023-08-12T04:28:10;100452.69;;;12.44;98.66
4022;BME280;2025;48.260;16.432;2023-08-12T04:30:41;100443.31;;;12.50;98.70
4022;BME280;2025;48.260;16.432;2023-08-12T04:33:08;100446.94;;;12.74;97.25
4022;BME280;2025;48.260;16.432;2023-08-12T04:35:36;100455.84;;;12.81;97.25
4022;BME280;2025;48.260;16.432;2023-08-12T04:38:03;100453.38;;;12.79;97.99
4022;BME280;2025;48.260;16.432;2023-08-12T04:40:30;100457.50;;;12.82;98.10
4022;BME280;2025;48.260;16.432;2023-08-12T04:42:57;100454.19;;;12.88;98.08
4022;BME280;2025;48.260;16.432;2023-08-12T04:45:24;100460.44;;;12.95;98.33
4022;BME280;2025;48.260;16.432;2023-08-12T04:47:53;100451.31;;;13.14;97.08
4022;BME280;2025;48.260;16.432;2023-08-12T04:50:20;100452.81;;;13.25;97.13
4022;BME280;2025;48.260;16.432;2023-08-12T04:52:47;100450.00;;;13.35;97.37
4022;BME280;2025;48.260;16.432;2023-08-12T04:55:14;100450.78;;;13.43;97.25
4022;BME280;2025;48.260;16.432;2023-08-12T04:57:42;100463.00;;;13.53;97.24
4022;BME280;2025;48.260;16.432;2023-08-12T05:00:10;100462.50;;;13.57;97.07
4022;BME280;2025;48.260;16.432;2023-08-12T05:02:37;100467.41;;;13.68;97.23
4022;BME280;2025;48.260;16.432;2023-08-12T05:05:07;100472.94;;;13.90;96.24
4022;BME280;2025;48.260;16.432;2023-08-12T05:07:34;100466.41;;;14.01;96.41
4022;BME280;2025;48.260;16.432;2023-08-12T05:10:01;100460.72;;;14.12;96.32
4022;BME280;2025;48.260;16.432;2023-08-12T05:12:28;100464.63;;;14.24;95.87
4022;BME280;2025;48.260;16.432;2023-08-12T05:14:55;100462.84;;;14.40;95.63
4022;BME280;2025;48.260;16.432;2023-08-12T05:17:22;100463.47;;;14.50;95.38
4022;BME280;2025;48.260;16.432;2023-08-12T05:19:49;100463.25;;;14.60;94.04
4022;BME280;2025;48.260;16.432;2023-08-12T05:22:17;100464.56;;;14.79;93.86
4022;BME280;2025;48.260;16.432;2023-08-12T05:24:44;100460.56;;;14.98;91.83
4022;BME280;2025;48.260;16.432;2023-08-12T05:27:11;100459.69;;;15.20;88.42
4022;BME280;2025;48.260;16.432;2023-08-12T05:29:38;100460.06;;;15.32;88.60
4022;BME280;2025;48.260;16.432;2023-08-12T05:32:05;100459.63;;;15.43;88.04
4022;BME280;2025;48.260;16.432;2023-08-12T05:34:32;100458.13;;;15.55;87.39
4022;BME280;2025;48.260;16.432;2023-08-12T05:36:59;100456.38;;;15.77;84.68
4022;BME280;2025;48.260;16.432;2023-08-12T05:39:27;100450.16;;;15.85;84.38
4022;BME280;2025;48.260;16.432;2023-08-12T05:41:54;100448.75;;;15.89;85.48
4022;BME280;2025;48.260;16.432;2023-08-12T05:44:21;100452.03;;;15.91;84.67
4022;BME280;2025;48.260;16.432;2023-08-12T05:46:48;100453.97;;;15.97;84.22
4022;BME280;2025;48.260;16.432;2023-08-12T05:49:14;100454.03;;;16.04;84.06
4022;BME280;2025;48.260;16.432;2023-08-12T05:51:41;100446.19;;;16.17;84.42
4022;BME280;2025;48.260;16.432;2023-08-12T05:54:08;100451.47;;;16.32;82.88
4022;BME280;2025;48.260;16.432;2023-08-12T05:56:37;100445.97;;;16.55;81.15
4022;BME280;2025;48.260;16.432;2023-08-12T05:59:04;100454.47;;;16.72;80.66
4022;BME280;2025;48.260;16.432;2023-08-12T06:01:31;100453.09;;;16.76;82.01
4022;BME280;2025;48.260;16.432;2023-08-12T06:03:58;100465.63;;;16.82;80.08
4022;BME280;2025;48.260;16.432;2023-08-12T06:06:25;100454.00;;;16.83;78.51
4022;BME280;2025;48.260;16.432;2023-08-12T06:08:52;100459.94;;;16.85;79.68
4022;BME280;2025;48.260;16.432;2023-08-12T06:11:19;100461.00;;;16.91;79.67
4022;BME280;2025;48.260;16.432;2023-08-12T06:13:47;100454.06;;;16.97;77.72
4022;BME280;2025;48.260;16.432;2023-08-12T06:16:14;100461.03;;;16.98;77.15
4022;BME280;2025;48.260;16.432;2023-08-12T06:18:41;100458.38;;;16.98;78.35
4022;BME280;2025;48.260;16.432;2023-08-12T06:21:08;100451.66;;;17.02;78.53
4022;BME280;2025;48.260;16.432;2023-08-12T06:23:35;100452.13;;;17.12;78.57
4022;BME280;2025;48.260;16.432;2023-08-12T06:26:02;100442.56;;;17.24;78.61
4022;BME280;2025;48.260;16.432;2023-08-12T06:28:29;100442.88;;;17.43;78.63
4022;BME280;2025;48.260;16.432;2023-08-12T06:30:58;100441.91;;;17.51;77.66
4022;BME280;2025;48.260;16.432;2023-08-12T06:33:25;100436.84;;;17.69;76.67
4022;BME280;2025;48.260;16.432;2023-08-12T06:35:52;100444.25;;;17.74;77.04
4022;BME280;2025;48.260;16.432;2023-08-12T06:38:19;100432.78;;;17.80;75.44
4022;BME280;2025;48.260;16.432;2023-08-12T06:40:47;100434.31;;;17.96;76.41
4022;BME280;2025;48.260;16.432;2023-08-12T06:43:14;100435.97;;;18.10;73.80
4022;BME280;2025;48.260;16.432;2023-08-12T06:45:40;100439.28;;;18.32;74.46
4022;BME280;2025;48.260;16.432;2023-08-12T06:48:09;100431.75;;;18.49;74.57
4022;BME280;2025;48.260;16.432;2023-08-12T06:50:36;100412.44;;;18.53;74.65
4022;BME280;2025;48.260;16.432;2023-08-12T06:53:03;100425.38;;;18.63;70.97
4022;BME280;2025;48.260;16.432;2023-08-12T06:55:30;100421.91;;;18.69;72.19
4022;BME280;2025;48.260;16.432;2023-08-12T06:57:57;100421.88;;;18.89;72.87
4022;BME280;2025;48.260;16.432;2023-08-12T07:00:24;100423.69;;;19.09;70.42
4022;BME280;2025;48.260;16.432;2023-08-12T07:02:51;100433.53;;;19.28;70.14
4022;BME280;2025;48.260;16.432;2023-08-12T07:05:19;100425.06;;;19.38;68.41
4022;BME280;2025;48.260;16.432;2023-08-12T07:07:46;100430.22;;;19.26;67.35
4022;BME280;2025;48.260;16.432;2023-08-12T07:10:13;100426.31;;;19.35;67.85
4022;BME280;2025;48.260;16.432;2023-08-12T07:12:40;100415.75;;;19.54;67.76
4022;BME280;2025;48.260;16.432;2023-08-12T07:15:08;100415.88;;;19.79;66.76
4022;BME280;2025;48.260;16.432;2023-08-12T07:17:36;100424.56;;;20.06;65.58
4022;BME280;2025;48.260;16.432;2023-08-12T07:20:04;100416.25;;;20.21;67.03
4022;BME280;2025;48.260;16.432;2023-08-12T07:22:32;100418.09;;;20.20;64.41
4022;BME280;2025;48.260;16.432;2023-08-12T07:24:59;100417.28;;;20.20;64.81
4022;BME280;2025;48.260;16.432;2023-08-12T07:27:26;100421.25;;;20.11;63.58
4022;BME280;2025;48.260;16.432;2023-08-12T07:29:53;100414.47;;;20.08;65.21
4022;BME280;2025;48.260;16.432;2023-08-12T07:32:20;100408.59;;;20.25;63.92
4022;BME280;2025;48.260;16.432;2023-08-12T07:34:47;100409.53;;;20.37;63.80
4022;BME280;2025;48.260;16.432;2023-08-12T07:37:14;100420.72;;;20.59;62.75
4022;BME280;2025;48.260;16.432;2023-08-12T07:39:43;100411.91;;;20.52;62.62
4022;BME280;2025;48.260;16.432;2023-08-12T07:42:10;100413.06;;;20.62;63.43
4022;BME280;2025;48.260;16.432;2023-08-12T07:44:37;100421.19;;;20.74;61.90
4022;BME280;2025;48.260;16.432;2023-08-12T07:47:04;100407.88;;;20.86;63.15
4022;BME280;2025;48.260;16.432;2023-08-12T07:49:31;100408.34;;;20.83;61.75
4022;BME280;2025;48.260;16.432;2023-08-12T07:51:58;100415.00;;;20.99;62.04
4022;BME280;2025;48.260;16.432;2023-08-12T07:54:25;100409.44;;;21.19;60.61
4022;BME280;2025;48.260;16.432;2023-08-12T07:56:53;100406.66;;;21.25;58.39
4022;BME280;2025;48.260;16.432;2023-08-12T07:59:20;100406.38;;;21.34;60.52
4022;BME280;2025;48.260;16.432;2023-08-12T08:01:47;100408.34;;;21.45;60.64
4022;BME280;2025;48.260;16.432;2023-08-12T08:04:14;100404.00;;;21.44;61.70
4022;BME280;2025;48.260;16.432;2023-08-12T08:06:41;100397.53;;;21.52;62.27
4022;BME280;2025;48.260;16.432;2023-08-12T08:09:08;100397.47;;;21.70;61.71
4022;BME280;2025;48.260;16.432;2023-08-12T08:11:36;100393.72;;;21.89;60.67
4022;BME280;2025;48.260;16.432;2023-08-12T08:14:04;100390.00;;;22.02;59.82
4022;BME280;2025;48.260;16.432;2023-08-12T08:16:31;100388.19;;;22.15;60.26
4022;BME280;2025;48.260;16.432;2023-08-12T08:18:58;100387.19;;;22.27;58.56
4022;BME280;2025;48.260;16.432;2023-08-12T08:21:25;100386.63;;;22.37;59.29
4022;BME280;2025;48.260;16.432;2023-08-12T08:23:52;100376.94;;;22.48;56.07
4022;BME280;2025;48.260;16.432;2023-08-12T08:26:19;100377.53;;;22.62;56.23
4022;BME280;2025;48.260;16.432;2023-08-12T08:28:46;100371.47;;;22.78;55.01
4022;BME280;2025;48.260;16.432;2023-08-12T08:31:14;100373.53;;;22.88;56.34
4022;BME280;2025;48.260;16.432;2023-08-12T08:33:41;100377.31;;;22.99;54.75
4022;BME280;2025;48.260;16.432;2023-08-12T08:36:08;100376.94;;;23.07;54.88
4022;BME280;2025;48.260;16.432;2023-08-12T08:38:36;100379.25;;;23.15;54.73
4022;BME280;2025;48.260;16.432;2023-08-12T08:41:07;100371.41;;;23.25;54.63
4022;BME280;2025;48.260;16.432;2023-08-12T08:43:40;100372.91;;;23.33;55.44
4022;BME280;2025;48.260;16.432;2023-08-12T08:46:20;100373.72;;;23.33;54.85
4022;BME280;2025;48.260;16.432;2023-08-12T08:48:52;100373.47;;;23.35;54.15
4022;BME280;2025;48.260;16.432;2023-08-12T08:51:21;100370.97;;;23.57;53.69
4022;BME280;2025;48.260;16.432;2023-08-12T08:53:54;100365.66;;;23.74;54.12
4022;BME280;2025;48.260;16.432;2023-08-12T08:56:27;100367.13;;;23.82;51.44
4022;BME280;2025;48.260;16.432;2023-08-12T08:58:58;100359.97;;;23.87;52.52
4022;BME280;2025;48.260;16.432;2023-08-12T09:01:34;100368.13;;;23.92;51.88
4022;BME280;2025;48.260;16.432;2023-08-12T09:04:09;100365.94;;;24.06;52.15
4022;BME280;2025;48.260;16.432;2023-08-12T09:06:41;100372.72;;;24.09;53.31
4022;BME280;2025;48.260;16.432;2023-08-12T09:09:12;100373.94;;;24.01;50.72
4022;BME280;2025;48.260;16.432;2023-08-12T09:11:43;100371.13;;;23.96;53.14
4022;BME280;2025;48.260;16.432;2023-08-12T09:14:13;100358.94;;;24.22;53.26
4022;BME280;2025;48.260;16.432;2023-08-12T09:16:45;100368.81;;;24.50;52.83
4022;BME280;2025;48.260;16.432;2023-08-12T09:19:14;100366.91;;;24.68;51.30
4022;BME280;2025;48.260;16.432;2023-08-12T09:21:43;100356.34;;;24.83;50.23
4022;BME280;2025;48.260;16.432;2023-08-12T09:24:12;100349.72;;;24.91;51.03
4022;BME280;2025;48.260;16.432;2023-08-12T09:26:42;100348.75;;;24.80;51.88
4022;BME280;2025;48.260;16.432;2023-08-12T09:29:10;100345.75;;;24.98;51.13
4022;BME280;2025;48.260;16.432;2023-08-12T09:31:38;100340.75;;;25.07;51.80
4022;BME280;2025;48.260;16.432;2023-08-12T09:34:07;100344.06;;;25.14;53.30
4022;BME280;2025;48.260;16.432;2023-08-12T09:36:35;100345.81;;;25.20;52.57
4022;BME280;2025;48.260;16.432;2023-08-12T09:39:06;100345.72;;;25.37;52.03
4022;BME280;2025;48.260;16.432;2023-08-12T09:41:34;100347.00;;;25.57;49.93
4022;BME280;2025;48.260;16.432;2023-08-12T09:44:02;100345.91;;;25.53;51.74
4022;BME280;2025;48.260;16.432;2023-08-12T09:46:29;100345.47;;;25.39;50.61
4022;BME280;2025;48.260;16.432;2023-08-12T09:48:59;100330.25;;;25.55;49.79
4022;BME280;2025;48.260;16.432;2023-08-12T09:51:34;100334.53;;;25.78;48.96
4022;BME280;2025;48.260;16.432;2023-08-12T09:54:01;100331.63;;;25.84;48.41
4022;BME280;2025;48.260;16.432;2023-08-12T09:56:33;100332.56;;;25.95;49.01
4022;BME280;2025;48.260;16.432;2023-08-12T09:59:05;100332.41;;;26.12;48.49
4022;BME280;2025;48.260;16.432;2023-08-12T10:01:33;100329.63;;;26.34;46.71
4022;BME280;2025;48.260;16.432;2023-08-12T10:04:00;100317.41;;;26.26;46.81
4022;BME280;2025;48.260;16.432;2023-08-12T10:06:30;100321.56;;;26.39;46.75
4022;BME280;2025;48.260;16.432;2023-08-12T10:08:58;100314.00;;;26.41;46.10
4022;BME280;2025;48.260;16.432;2023-08-12T10:11:26;100317.13;;;26.60;46.46
4022;BME280;2025;48.260;16.432;2023-08-12T10:13:53;100318.22;;;26.64;48.08
4022;BME280;2025;48.260;16.432;2023-08-12T10:16:22;100317.81;;;26.93;46.32
4022;BME280;2025;48.260;16.432;2023-08-12T10:18:51;100316.69;;;26.89;46.10
4022;BME280;2025;48.260;16.432;2023-08-12T10:21:20;100310.53;;;26.99;45.07
4022;BME280;2025;48.260;16.432;2023-08-12T10:23:51;100310.56;;;27.09;45.22
4022;BME280;2025;48.260;16.432;2023-08-12T10:26:21;100310.03;;;27.17;44.79
4022;BME280;2025;48.260;16.432;2023-08-12T10:28:49;100300.91;;;27.23;44.31
4022;BME280;2025;48.260;16.432;2023-08-12T10:31:18;100297.97;;;27.40;44.44
4022;BME280;2025;48.260;16.432;2023-08-12T10:33:47;100301.78;;;27.60;44.44
4022;BME280;2025;48.260;16.432;2023-08-12T10:36:16;100294.22;;;27.92;42.47
4022;BME280;2025;48.260;16.432;2023-08-12T10:38:45;100294.41;;;28.57;42.60
4022;BME280;2025;48.260;16.432;2023-08-12T10:41:19;100294.78;;;29.00;40.47
4022;BME280;2025;48.260;16.432;2023-08-12T10:43:53;100292.44;;;29.78;38.48
4022;BME280;2025;48.260;16.432;2023-08-12T10:46:28;100290.47;;;29.83;38.54
4022;BME280;2025;48.260;16.432;2023-08-12T10:48:57;100291.47;;;29.98;38.81
4022;BME280;2025;48.260;16.432;2023-08-12T10:51:44;100280.06;;;29.22;40.28
4022;BME280;2025;48.260;16.432;2023-08-12T10:54:16;100282.16;;;29.35;40.42
4022;BME280;2025;48.260;16.432;2023-08-12T10:57:06;100276.59;;;29.56;41.37
4022;BME280;2025;48.260;16.432;2023-08-12T10:59:51;100271.00;;;29.37;38.49
4022;BME280;2025;48.260;16.432;2023-08-12T11:02:19;100261.66;;;29.53;37.54
4022;BME280;2025;48.260;16.432;2023-08-12T11:04:52;100263.66;;;29.42;37.17
4022;BME280;2025;48.260;16.432;2023-08-12T11:07:20;100270.59;;;29.19;38.44
4022;BME280;2025;48.260;16.432;2023-08-12T11:09:51;100264.94;;;29.11;39.00
4022;BME280;2025;48.260;16.432;2023-08-12T11:12:29;100263.16;;;29.35;37.08
4022;BME280;2025;48.260;16.432;2023-08-12T11:14:58;100262.13;;;29.66;37.15
4022;BME280;2025;48.260;16.432;2023-08-12T11:17:32;100267.75;;;29.74;38.20
4022;BME280;2025;48.260;16.432;2023-08-12T11:19:59;100265.88;;;30.04;37.40
4022;BME280;2025;48.260;16.432;2023-08-12T11:22:26;100262.47;;;30.17;37.50
4022;BME280;2025;48.260;16.432;2023-08-12T11:24:54;100257.28;;;30.21;36.18
4022;BME280;2025;48.260;16.432;2023-08-12T11:27:22;100253.06;;;30.10;36.58
4022;BME280;2025;48.260;16.432;2023-08-12T11:29:50;100254.19;;;29.74;35.80
4022;BME280;2025;48.260;16.432;2023-08-12T11:32:18;100249.06;;;29.33;39.39
4022;BME280;2025;48.260;16.432;2023-08-12T11:34:45;100251.38;;;29.50;37.44
4022;BME280;2025;48.260;16.432;2023-08-12T11:37:12;100253.84;;;29.86;38.51
4022;BME280;2025;48.260;16.432;2023-08-12T11:39:39;100250.22;;;29.61;36.36
4022;BME280;2025;48.260;16.432;2023-08-12T11:42:06;100249.28;;;29.42;36.80
4022;BME280;2025;48.260;16.432;2023-08-12T11:44:32;100240.13;;;29.67;37.20
4022;BME280;2025;48.260;16.432;2023-08-12T11:47:01;100232.53;;;29.64;37.90
4022;BME280;2025;48.260;16.432;2023-08-12T11:49:28;100225.25;;;29.25;39.09
4022;BME280;2025;48.260;16.432;2023-08-12T11:51:55;100228.09;;;29.44;37.49
4022;BME280;2025;48.260;16.432;2023-08-12T11:54:22;100213.34;;;29.55;37.88
4022;BME280;2025;48.260;16.432;2023-08-12T11:56:49;100211.75;;;29.54;39.41
4022;BME280;2025;48.260;16.432;2023-08-12T11:59:16;100208.03;;;29.79;38.30
4022;BME280;2025;48.260;16.432;2023-08-12T12:01:46;100207.13;;;30.13;37.71
4022;BME280;2025;48.260;16.432;2023-08-12T12:04:16;100188.03;;;29.94;35.71
4022;BME280;2025;48.260;16.432;2023-08-12T12:06:46;100192.81;;;29.78;37.02
4022;BME280;2025;48.260;16.432;2023-08-12T12:09:13;100197.84;;;29.90;38.11
4022;BME280;2025;48.260;16.432;2023-08-12T12:11:44;100184.88;;;29.87;37.05
4022;BME280;2025;48.260;16.432;2023-08-12T12:14:11;100196.34;;;29.79;37.49
4022;BME280;2025;48.260;16.432;2023-08-12T12:16:39;100187.84;;;29.56;37.03
4022;BME280;2025;48.260;16.432;2023-08-12T12:19:12;100184.81;;;29.63;40.39
4022;BME280;2025;48.260;16.432;2023-08-12T12:21:42;100186.59;;;29.78;37.95
4022;BME280;2025;48.260;16.432;2023-08-12T12:24:09;100182.31;;;29.67;37.14
4022;BME280;2025;48.260;16.432;2023-08-12T12:26:37;100182.59;;;29.70;38.80
4022;BME280;2025;48.260;16.432;2023-08-12T12:29:04;100176.47;;;29.83;36.75
4022;BME280;2025;48.260;16.432;2023-08-12T12:33:59;100177.19;;;30.18;36.83
4022;BME280;2025;48.260;16.432;2023-08-12T12:36:26;100165.22;;;30.43;36.06
4022;BME280;2025;48.260;16.432;2023-08-12T12:38:55;100165.75;;;30.45;35.98
4022;BME280;2025;48.260;16.432;2023-08-12T12:41:22;100164.13;;;30.44;36.24
4022;BME280;2025;48.260;16.432;2023-08-12T12:43:49;100173.31;;;30.67;35.65
4022;BME280;2025;48.260;16.432;2023-08-12T12:46:16;100173.47;;;30.57;34.18
4022;BME280;2025;48.260;16.432;2023-08-12T12:48:43;100163.84;;;30.22;34.58
4022;BME280;2025;48.260;16.432;2023-08-12T12:51:10;100166.03;;;30.44;36.40
4022;BME280;2025;48.260;16.432;2023-08-12T12:53:37;100153.28;;;30.44;33.57
4022;BME280;2025;48.260;16.432;2023-08-12T12:56:06;100158.41;;;30.46;36.45
4022;BME280;2025;48.260;16.432;2023-08-12T12:58:33;100158.56;;;30.74;34.59
4022;BME280;2025;48.260;16.432;2023-08-12T13:01:01;100153.22;;;30.69;33.10
4022;BME280;2025;48.260;16.432;2023-08-12T13:03:29;100142.03;;;30.70;34.99
4022;BME280;2025;48.260;16.432;2023-08-12T13:05:57;100142.94;;;30.84;35.47
4022;BME280;2025;48.260;16.432;2023-08-12T13:08:24;100140.25;;;30.79;33.57